createdAt,value
2019-05-18T00:02:18.045Z,86.66
2019-05-18T00:07:21.473Z,87.15
2019-05-18T00:12:24.930Z,86.75
2019-05-18T00:17:28.304Z,86.88
2019-05-18T00:22:31.732Z,86.40
2019-05-18T00:27:35.176Z,86.31
2019-05-18T00:32:38.619Z,86.47
2019-05-18T00:37:42.058Z,87.13
2019-05-18T00:42:45.488Z,86.95
2019-05-18T00:47:48.916Z,87.49
2019-05-18T00:52:52.493Z,87.89
2019-05-18T00:57:55.918Z,88.51
2019-05-18T01:02:59.377Z,88.90
2019-05-18T01:08:02.797Z,89.77
2019-05-18T01:13:06.228Z,89.37
2019-05-18T01:18:09.649Z,90.00
2019-05-18T01:23:13.147Z,89.30
2019-05-18T01:28:16.594Z,89.02
2019-05-18T01:33:20.011Z,88.16
2019-05-18T01:38:23.472Z,87.87
2019-05-18T01:43:26.899Z,87.72
2019-05-18T01:48:30.317Z,88.07
2019-05-18T01:53:33.754Z,87.92
2019-05-18T01:58:37.206Z,87.49
2019-05-18T02:03:40.718Z,88.54
2019-05-18T02:08:44.139Z,88.64
2019-05-18T02:13:47.605Z,88.58
2019-05-18T02:18:51.022Z,89.00
2019-05-18T02:23:55.090Z,88.51
2019-05-18T02:28:58.512Z,88.36
2019-05-18T02:34:01.948Z,88.57
2019-05-18T02:39:07.503Z,88.70
2019-05-18T02:44:10.923Z,88.62
2019-05-18T02:49:14.427Z,88.11
2019-05-18T02:54:17.857Z,88.33
2019-05-18T02:59:21.371Z,89.15
2019-05-18T03:04:24.929Z,89.31
2019-05-18T03:09:28.371Z,88.69
2019-05-18T03:14:31.812Z,88.46
2019-05-18T03:19:35.293Z,88.02
2019-05-18T03:24:38.774Z,88.69
2019-05-18T03:29:42.161Z,89.25
2019-05-18T03:34:45.587Z,90.28
2019-05-18T03:39:49.000Z,90.09
2019-05-18T03:44:52.413Z,91.13
2019-05-18T03:49:55.831Z,91.48
2019-05-18T03:54:59.256Z,91.03
2019-05-18T04:00:02.969Z,90.52
2019-05-18T04:05:07.230Z,91.45
2019-05-18T04:10:10.988Z,92.27
2019-05-18T04:15:14.558Z,91.52
2019-05-18T04:20:18.410Z,91.38
2019-05-18T04:25:21.832Z,91.09
2019-05-18T04:30:27.052Z,91.91
2019-05-18T04:35:30.483Z,91.40
2019-05-18T04:40:33.914Z,91.65
2019-05-18T04:45:37.353Z,91.98
2019-05-18T04:50:40.776Z,91.51
2019-05-18T04:55:44.257Z,92.44
2019-05-18T05:00:47.685Z,91.84
2019-05-18T05:05:51.110Z,92.28
2019-05-18T05:10:54.518Z,93.05
2019-05-18T05:15:57.954Z,91.57
2019-05-18T05:21:01.452Z,92.02
2019-05-18T05:26:05.010Z,91.89
2019-05-18T05:31:08.454Z,90.51
2019-05-18T05:36:11.896Z,90.20
2019-05-18T05:41:16.671Z,92.47
2019-05-18T05:46:20.442Z,96.98
2019-05-18T05:51:23.962Z,98.14
2019-05-18T05:56:27.390Z,100.00
2019-05-18T06:01:30.819Z,100.00
2019-05-18T06:06:34.244Z,100.00
2019-05-18T06:11:37.680Z,100.00
2019-05-18T06:16:41.113Z,100.00
2019-05-18T06:21:44.616Z,100.00
2019-05-18T06:26:48.055Z,100.00
2019-05-18T06:31:51.497Z,97.83
2019-05-18T06:36:55.998Z,94.44
2019-05-18T06:41:59.635Z,98.39
2019-05-18T06:47:03.157Z,96.88
2019-05-18T06:52:06.617Z,93.16
2019-05-18T06:57:11.255Z,90.21
2019-05-18T07:02:14.842Z,90.99
2019-05-18T07:07:18.298Z,92.10
2019-05-18T07:12:21.712Z,89.51
2019-05-18T07:17:25.157Z,85.82
2019-05-18T07:22:28.582Z,85.06
2019-05-18T07:27:32.010Z,81.79
2019-05-18T07:32:35.428Z,83.10
2019-05-18T07:37:38.844Z,79.22
2019-05-18T07:42:42.280Z,71.89
2019-05-18T07:47:45.742Z,73.91
2019-05-18T07:52:49.166Z,74.59
2019-05-18T07:57:52.715Z,72.62
2019-05-18T08:02:56.163Z,69.58
2019-05-18T08:07:59.584Z,65.89
2019-05-18T08:13:03.021Z,62.36
2019-05-18T08:18:06.671Z,67.73
2019-05-18T08:23:10.201Z,64.74
2019-05-18T08:28:13.652Z,65.82
2019-05-18T08:33:17.105Z,62.87
2019-05-18T08:38:20.538Z,63.29
2019-05-18T08:43:24.110Z,58.26
2019-05-18T08:48:27.546Z,56.03
2019-05-18T08:53:30.960Z,56.25
2019-05-18T08:58:34.389Z,56.99
2019-05-18T09:03:37.885Z,56.99
2019-05-18T09:08:41.322Z,58.59
2019-05-18T09:13:44.850Z,57.06
2019-05-18T09:18:48.325Z,53.71
2019-05-18T09:23:51.738Z,54.40
2019-05-18T09:28:55.155Z,51.99
2019-05-18T09:33:58.596Z,50.63
2019-05-18T09:39:02.032Z,49.11
2019-05-18T09:44:05.894Z,47.48
2019-05-18T09:49:09.300Z,49.21
2019-05-18T09:54:12.791Z,44.64
2019-05-18T09:59:16.252Z,46.34
2019-05-18T10:04:19.698Z,45.05
2019-05-18T10:09:23.136Z,40.93
2019-05-18T10:14:26.543Z,43.07
2019-05-18T10:19:29.965Z,40.37
2019-05-18T10:24:33.412Z,41.52
2019-05-18T10:29:36.848Z,41.07
2019-05-18T10:34:40.266Z,40.89
2019-05-18T10:39:43.696Z,40.13
2019-05-18T10:44:47.127Z,41.20
2019-05-18T10:49:50.566Z,38.73
2019-05-18T10:54:53.985Z,38.02
2019-05-18T10:59:57.404Z,38.28
2019-05-18T11:05:00.882Z,35.73
2019-05-18T11:10:09.469Z,38.59
2019-05-18T11:15:14.527Z,36.78
2019-05-18T11:20:18.996Z,33.32
2019-05-18T11:25:22.568Z,34.08
2019-05-18T11:30:28.912Z,34.83
2019-05-18T11:35:32.351Z,36.52
2019-05-18T11:40:35.910Z,34.94
2019-05-18T11:45:39.385Z,35.39
2019-05-18T11:50:42.805Z,34.05
2019-05-18T11:55:46.238Z,33.44
2019-05-18T12:00:49.656Z,34.44
2019-05-18T12:05:53.079Z,32.63
2019-05-18T12:10:56.580Z,31.20
2019-05-18T12:15:59.983Z,34.24
2019-05-18T12:21:03.446Z,31.11
2019-05-18T12:26:06.851Z,31.52
2019-05-18T12:31:10.438Z,31.24
2019-05-18T12:36:15.810Z,31.30
2019-05-18T12:41:20.626Z,31.68
2019-05-18T12:46:24.921Z,31.16
2019-05-18T12:51:28.308Z,29.32
2019-05-18T12:56:31.727Z,29.34
2019-05-18T13:01:35.169Z,31.39
2019-05-18T13:06:38.584Z,29.51
2019-05-18T13:11:42.010Z,29.09
2019-05-18T13:16:45.429Z,28.66
2019-05-18T13:21:48.852Z,30.58
2019-05-18T13:26:52.286Z,29.74
2019-05-18T13:31:55.698Z,29.31
2019-05-18T13:36:59.118Z,28.86
2019-05-18T13:42:02.558Z,28.02
2019-05-18T13:47:05.982Z,30.11
2019-05-18T13:52:09.384Z,30.99
2019-05-18T13:57:12.808Z,29.19
2019-05-18T14:02:16.220Z,28.34
2019-05-18T14:07:19.640Z,29.62
2019-05-18T14:12:23.076Z,29.56
2019-05-18T14:17:26.501Z,31.05
2019-05-18T14:22:29.940Z,29.85
2019-05-18T14:27:33.409Z,29.61
2019-05-18T14:32:36.835Z,29.36
2019-05-18T14:37:40.272Z,29.20
2019-05-18T14:42:43.692Z,30.61
2019-05-18T14:47:47.129Z,31.18
2019-05-18T14:52:50.557Z,32.14
2019-05-18T14:57:54.104Z,30.79
2019-05-18T15:02:57.535Z,32.78
2019-05-18T15:08:00.959Z,33.18
2019-05-18T15:13:04.453Z,33.80
2019-05-18T15:18:07.860Z,33.93
2019-05-18T15:23:11.300Z,33.06
2019-05-18T15:28:14.765Z,33.02
2019-05-18T15:33:18.248Z,35.39
2019-05-18T15:38:21.659Z,35.73
2019-05-18T15:43:25.085Z,36.12
2019-05-18T15:48:28.534Z,36.50
2019-05-18T15:53:31.966Z,36.90
2019-05-18T15:58:35.456Z,37.76
2019-05-18T16:03:38.891Z,37.21
2019-05-18T16:08:42.305Z,36.36
2019-05-18T16:13:45.719Z,36.78
2019-05-18T16:18:49.153Z,37.49
2019-05-18T16:23:52.577Z,37.76
2019-05-18T16:28:55.987Z,37.18
2019-05-18T16:33:59.427Z,36.91
2019-05-18T16:39:02.977Z,37.24
2019-05-18T16:44:07.439Z,37.23
2019-05-18T16:49:10.869Z,38.05
2019-05-18T16:54:14.292Z,37.23
2019-05-18T16:59:17.803Z,36.00
2019-05-18T17:04:21.279Z,36.89
2019-05-18T17:09:24.704Z,37.57
2019-05-18T17:14:28.124Z,38.43
2019-05-18T17:19:31.617Z,38.15
2019-05-18T17:24:35.041Z,39.15
2019-05-18T17:29:38.508Z,39.67
2019-05-18T17:34:42.011Z,39.56
2019-05-18T17:39:45.425Z,40.55
2019-05-18T17:44:48.856Z,41.18
2019-05-18T17:49:52.352Z,40.95
2019-05-18T17:54:57.450Z,41.55
2019-05-18T18:00:01.011Z,42.94
2019-05-18T18:05:09.124Z,42.99
2019-05-18T18:10:14.531Z,44.36
2019-05-18T18:15:19.300Z,44.94
2019-05-18T18:20:22.775Z,45.75
2019-05-18T18:25:27.030Z,46.81
2019-05-18T18:30:30.572Z,48.38
2019-05-18T18:35:34.037Z,49.30
2019-05-18T18:40:37.479Z,48.65
2019-05-18T18:45:40.893Z,50.70
2019-05-18T18:50:44.316Z,51.61
2019-05-18T18:55:47.799Z,52.16
2019-05-18T19:00:52.337Z,54.03
2019-05-18T19:05:55.770Z,54.03
2019-05-18T19:10:59.214Z,53.78
2019-05-18T19:16:02.665Z,53.89
2019-05-18T19:21:06.126Z,53.96
2019-05-18T19:26:09.541Z,54.06
2019-05-18T19:31:12.965Z,54.69
2019-05-18T19:36:16.373Z,56.53
2019-05-18T19:41:19.781Z,56.53
2019-05-18T19:46:23.200Z,58.69
2019-05-18T19:51:26.914Z,59.65
2019-05-18T19:56:38.144Z,60.24
2019-05-18T20:01:35.621Z,60.28
2019-05-18T20:06:39.044Z,60.66
2019-05-18T20:11:42.452Z,61.28
2019-05-18T20:16:45.926Z,62.17
2019-05-18T20:21:49.361Z,63.15
2019-05-18T20:26:52.755Z,64.04
2019-05-18T20:31:56.160Z,64.14
2019-05-18T20:36:59.625Z,65.20
2019-05-18T20:42:03.082Z,65.85
2019-05-18T20:47:06.507Z,66.21
2019-05-18T20:52:09.911Z,67.27
2019-05-18T20:57:13.367Z,67.92
2019-05-18T21:02:16.851Z,68.07
2019-05-18T21:07:20.280Z,68.12
2019-05-18T21:12:23.711Z,68.16
2019-05-18T21:17:27.137Z,68.12
2019-05-18T21:22:30.567Z,68.64
2019-05-18T21:27:34.020Z,69.21
2019-05-18T21:32:37.436Z,70.07
2019-05-18T21:37:40.847Z,70.09
2019-05-18T21:42:44.297Z,70.58
2019-05-18T21:47:47.717Z,70.75
2019-05-18T21:52:51.139Z,71.17
2019-05-18T22:02:56.934Z,71.65
2019-05-18T22:08:01.016Z,72.23
2019-05-18T22:13:04.373Z,72.24
2019-05-18T22:18:07.782Z,71.78
2019-05-18T22:23:11.333Z,72.47
2019-05-18T22:28:14.802Z,72.55
2019-05-18T22:33:18.232Z,73.30
2019-05-18T22:38:21.670Z,73.52
2019-05-18T22:43:25.112Z,73.45
2019-05-18T22:48:40.818Z,73.34
2019-05-18T22:53:33.672Z,73.88
2019-05-18T22:58:37.087Z,74.21
2019-05-18T23:03:40.518Z,74.22
2019-05-18T23:08:43.942Z,74.77
2019-05-18T23:13:47.401Z,74.76
2019-05-18T23:18:56.979Z,75.44
2019-05-18T23:23:55.982Z,74.89
2019-05-18T23:28:59.398Z,74.93
2019-05-18T23:34:02.836Z,75.30
2019-05-18T23:39:06.693Z,75.58
2019-05-18T23:44:10.118Z,75.85
2019-05-18T23:49:13.539Z,75.74
2019-05-18T23:54:16.949Z,75.33
2019-05-18T23:59:20.374Z,75.21
